createdAt,value
2022-10-02T00:01:27.834Z,12.50
2022-10-02T00:03:55.668Z,12.50
2022-10-02T00:06:23.801Z,12.40
2022-10-02T00:08:53.936Z,12.30
2022-10-02T00:11:24.860Z,12.30
2022-10-02T00:13:54.372Z,12.20
2022-10-02T00:16:30.619Z,12.20
2022-10-02T00:18:59.465Z,12.10
2022-10-02T00:21:37.341Z,12.10
2022-10-02T00:24:05.976Z,12.10
2022-10-02T00:26:40.993Z,12.10
2022-10-02T00:29:07.966Z,12.00
2022-10-02T00:31:45.020Z,12.00
2022-10-02T00:34:15.271Z,12.00
2022-10-02T00:36:48.440Z,12.00
2022-10-02T00:39:15.262Z,12.00
2022-10-02T00:41:44.971Z,11.90
2022-10-02T00:44:30.626Z,11.90
2022-10-02T00:46:57.434Z,11.80
2022-10-02T00:49:38.270Z,11.80
2022-10-02T00:52:11.252Z,11.70
2022-10-02T00:54:44.090Z,11.70
2022-10-02T00:57:29.787Z,11.60
2022-10-02T00:59:56.541Z,11.70
2022-10-02T01:02:26.523Z,11.70
2022-10-02T01:04:54.578Z,11.70
2022-10-02T01:07:22.337Z,11.60
2022-10-02T01:09:49.395Z,11.60
2022-10-02T01:12:16.283Z,11.60
2022-10-02T01:14:43.091Z,11.60
2022-10-02T01:17:22.958Z,11.60
2022-10-02T01:19:50.275Z,11.60
2022-10-02T01:22:19.830Z,11.60
2022-10-02T01:24:47.765Z,11.60
2022-10-02T01:27:14.750Z,11.60
2022-10-02T01:29:43.091Z,11.50
2022-10-02T01:32:10.176Z,11.60
2022-10-02T01:34:37.424Z,11.50
2022-10-02T01:37:04.399Z,11.50
2022-10-02T01:39:31.643Z,11.50
2022-10-02T01:41:58.511Z,11.50
2022-10-02T01:44:25.792Z,11.50
2022-10-02T01:47:02.422Z,11.40
2022-10-02T01:49:41.624Z,11.40
2022-10-02T01:52:17.591Z,11.40
2022-10-02T01:54:51.747Z,11.40
2022-10-02T01:57:25.230Z,11.50
2022-10-02T01:59:54.731Z,11.40
2022-10-02T02:02:44.629Z,11.40
2022-10-02T02:05:20.178Z,11.30
2022-10-02T02:07:46.955Z,11.30
2022-10-02T02:10:18.589Z,11.30
2022-10-02T02:12:54.396Z,11.30
2022-10-02T02:15:44.466Z,11.20
2022-10-02T02:18:14.703Z,11.10
2022-10-02T02:20:50.196Z,11.10
2022-10-02T02:23:19.214Z,11.10
2022-10-02T02:25:48.545Z,11.00
2022-10-02T02:28:17.424Z,11.00
2022-10-02T02:30:46.714Z,11.00
2022-10-02T02:33:17.367Z,11.00
2022-10-02T02:35:46.325Z,11.00
2022-10-02T02:38:17.687Z,11.00
2022-10-02T02:40:46.285Z,11.00
2022-10-02T02:43:19.620Z,10.90
2022-10-02T02:45:52.854Z,10.90
2022-10-02T02:48:28.142Z,10.90
2022-10-02T02:50:57.647Z,11.00
2022-10-02T02:53:26.605Z,11.00
2022-10-02T02:55:55.863Z,11.00
2022-10-02T02:58:22.685Z,10.90
2022-10-02T03:00:49.552Z,10.90
2022-10-02T03:03:16.501Z,10.80
2022-10-02T03:05:46.667Z,10.80
2022-10-02T03:08:17.838Z,10.80
2022-10-02T03:11:04.364Z,10.80
2022-10-02T03:13:43.398Z,10.80
2022-10-02T03:16:11.903Z,10.80
2022-10-02T03:18:48.321Z,10.80
2022-10-02T03:21:17.269Z,10.80
2022-10-02T03:23:58.625Z,10.80
2022-10-02T03:26:45.734Z,10.70
2022-10-02T03:29:16.586Z,10.70
2022-10-02T03:31:44.210Z,10.70
2022-10-02T03:34:11.784Z,10.60
2022-10-02T03:36:39.100Z,10.70
2022-10-02T03:39:24.174Z,10.70
2022-10-02T03:41:52.552Z,10.60
2022-10-02T03:44:19.457Z,10.60
2022-10-02T03:46:46.337Z,10.60
2022-10-02T03:49:13.281Z,10.60
2022-10-02T03:51:40.187Z,10.60
2022-10-02T03:54:13.126Z,10.60
2022-10-02T03:56:46.071Z,10.60
2022-10-02T03:59:15.904Z,10.50
2022-10-02T04:01:49.391Z,10.60
2022-10-02T04:04:17.879Z,10.60
2022-10-02T04:06:46.646Z,10.60
2022-10-02T04:09:16.449Z,10.60
2022-10-02T04:11:43.202Z,10.60
2022-10-02T04:14:30.318Z,10.60
2022-10-02T04:17:01.733Z,10.60
2022-10-02T04:19:33.395Z,10.60
2022-10-02T04:22:05.281Z,10.60
2022-10-02T04:24:36.557Z,10.60
2022-10-02T04:27:11.569Z,10.60
2022-10-02T04:29:47.793Z,10.50
2022-10-02T04:32:15.982Z,10.60
2022-10-02T04:34:43.222Z,10.60
2022-10-02T04:37:29.100Z,10.60
2022-10-02T04:39:55.965Z,10.60
2022-10-02T04:42:22.789Z,10.60
2022-10-02T04:45:02.512Z,10.60
2022-10-02T04:47:45.986Z,10.50
2022-10-02T04:50:22.111Z,10.50
2022-10-02T04:52:51.958Z,10.50
2022-10-02T04:55:31.657Z,10.50
2022-10-02T04:58:13.700Z,10.50
2022-10-02T05:00:45.715Z,10.40
2022-10-02T05:03:36.394Z,10.40
2022-10-02T05:06:13.206Z,10.40
2022-10-02T05:08:58.450Z,10.40
2022-10-02T05:11:44.232Z,10.40
2022-10-02T05:14:30.714Z,10.30
2022-10-02T05:17:00.509Z,10.40
2022-10-02T05:19:27.371Z,10.40
2022-10-02T05:21:59.966Z,10.40
2022-10-02T05:24:34.961Z,10.40
2022-10-02T05:27:14.101Z,10.40
2022-10-02T05:29:44.327Z,10.40
2022-10-02T05:32:23.047Z,10.40
2022-10-02T05:35:02.584Z,10.40
2022-10-02T05:37:32.319Z,10.40
2022-10-02T05:39:59.273Z,10.40
2022-10-02T05:42:47.652Z,10.40
2022-10-02T05:45:17.513Z,10.40
2022-10-02T05:47:47.345Z,10.40
2022-10-02T05:50:16.678Z,10.40
2022-10-02T05:52:46.430Z,10.40
2022-10-02T05:55:22.213Z,10.40
2022-10-02T05:57:52.420Z,10.50
2022-10-02T06:00:26.547Z,10.40
2022-10-02T06:02:53.340Z,10.40
2022-10-02T06:05:23.839Z,10.40
2022-10-02T06:07:53.616Z,10.40
2022-10-02T06:10:26.479Z,10.40
2022-10-02T06:13:03.081Z,10.40
2022-10-02T06:15:49.221Z,10.40
2022-10-02T06:18:19.832Z,10.40
2022-10-02T06:20:49.987Z,10.40
2022-10-02T06:23:20.525Z,10.40
2022-10-02T06:25:49.400Z,10.40
2022-10-02T06:28:32.546Z,10.40
2022-10-02T06:31:04.960Z,10.50
2022-10-02T06:33:33.525Z,10.50
2022-10-02T06:36:06.526Z,10.50
2022-10-02T06:38:39.251Z,10.50
2022-10-02T06:41:20.646Z,10.50
2022-10-02T06:44:20.034Z,10.60
2022-10-02T06:46:51.519Z,10.50
2022-10-02T06:49:27.375Z,10.60
2022-10-02T06:52:06.093Z,10.60
2022-10-02T06:54:51.318Z,10.50
2022-10-02T06:57:33.415Z,10.50
2022-10-02T07:00:04.166Z,10.60
2022-10-02T07:02:33.667Z,10.60
2022-10-02T07:05:22.971Z,10.60
2022-10-02T07:08:28.189Z,10.60
2022-10-02T07:11:09.559Z,10.70
2022-10-02T07:13:42.326Z,10.70
2022-10-02T07:16:09.469Z,10.80
2022-10-02T07:18:51.520Z,10.70
2022-10-02T07:21:33.562Z,10.80
2022-10-02T07:24:08.868Z,10.80
2022-10-02T07:26:35.910Z,10.80
2022-10-02T07:29:18.355Z,10.80
2022-10-02T07:31:48.020Z,10.90
2022-10-02T07:34:21.363Z,10.90
2022-10-02T07:37:06.000Z,11.00
2022-10-02T07:39:33.232Z,11.00
2022-10-02T07:42:18.821Z,11.00
2022-10-02T07:44:45.695Z,11.10
2022-10-02T07:47:24.219Z,11.10
2022-10-02T07:49:54.925Z,11.10
2022-10-02T07:52:34.544Z,11.10
2022-10-02T07:55:01.538Z,11.20
2022-10-02T07:57:31.445Z,11.20
2022-10-02T08:00:13.024Z,11.30
2022-10-02T08:02:43.226Z,11.30
2022-10-02T08:05:23.955Z,11.40
2022-10-02T08:07:52.528Z,11.30
2022-10-02T08:10:21.977Z,11.40
2022-10-02T08:12:57.923Z,11.40
2022-10-02T08:15:25.494Z,11.40
2022-10-02T08:18:16.485Z,11.40
2022-10-02T08:20:48.601Z,11.50
2022-10-02T08:23:29.495Z,11.50
2022-10-02T08:26:02.096Z,11.50
2022-10-02T08:28:40.797Z,11.60
2022-10-02T08:31:12.048Z,11.70
2022-10-02T08:33:39.285Z,11.70
2022-10-02T08:36:28.767Z,11.80
2022-10-02T08:39:18.344Z,11.80
2022-10-02T08:42:01.319Z,11.80
2022-10-02T08:44:43.366Z,11.80
2022-10-02T08:47:10.246Z,11.90
2022-10-02T08:49:56.702Z,11.90
2022-10-02T08:52:38.943Z,12.00
2022-10-02T08:55:24.622Z,12.00
2022-10-02T08:58:14.641Z,12.10
2022-10-02T09:00:49.285Z,12.10
2022-10-02T09:03:36.554Z,12.20
2022-10-02T09:06:09.614Z,12.20
2022-10-02T09:09:03.459Z,12.20
2022-10-02T09:11:48.865Z,12.30
2022-10-02T09:14:26.218Z,12.30
2022-10-02T09:16:56.414Z,12.40
2022-10-02T09:19:39.859Z,12.40
2022-10-02T09:22:25.452Z,12.50
2022-10-02T09:24:56.195Z,12.50
2022-10-02T09:27:38.365Z,12.50
2022-10-02T09:30:13.684Z,12.60
2022-10-02T09:32:50.136Z,12.70
2022-10-02T09:35:17.137Z,12.70
2022-10-02T09:38:16.230Z,12.70
2022-10-02T09:40:58.605Z,12.80
2022-10-02T09:43:25.379Z,12.80
2022-10-02T09:46:01.129Z,12.80
2022-10-02T09:48:37.149Z,12.80
2022-10-02T09:51:14.033Z,12.90
2022-10-02T09:53:40.949Z,12.80
2022-10-02T09:56:13.899Z,12.80
2022-10-02T09:58:57.323Z,12.70
2022-10-02T10:01:33.024Z,12.70
2022-10-02T10:04:09.316Z,12.60
2022-10-02T10:06:47.417Z,12.60
2022-10-02T10:09:17.195Z,12.50
2022-10-02T10:11:44.048Z,12.50
2022-10-02T10:14:10.884Z,12.50
2022-10-02T10:16:52.709Z,12.40
2022-10-02T10:19:38.255Z,12.40
2022-10-02T10:22:19.399Z,12.40
2022-10-02T10:24:46.383Z,12.30
2022-10-02T10:27:19.366Z,12.30
2022-10-02T10:30:04.345Z,12.30
2022-10-02T10:32:38.819Z,12.20
2022-10-02T10:35:17.714Z,12.20
2022-10-02T10:38:09.400Z,12.20
2022-10-02T10:40:56.521Z,12.20
2022-10-02T10:43:26.225Z,12.20
2022-10-02T10:46:04.007Z,12.20
2022-10-02T10:48:49.907Z,12.10
2022-10-02T10:51:30.742Z,12.10
2022-10-02T10:54:16.564Z,12.20
2022-10-02T10:56:46.146Z,12.20
2022-10-02T10:59:31.660Z,12.20
2022-10-02T11:02:17.060Z,12.20
2022-10-02T11:04:57.820Z,12.20
2022-10-02T11:07:27.642Z,12.20
2022-10-02T11:09:54.506Z,12.30
2022-10-02T11:12:32.263Z,12.40
2022-10-02T11:15:02.075Z,12.40
2022-10-02T11:17:32.041Z,12.50
2022-10-02T11:20:01.909Z,12.50
2022-10-02T11:22:28.718Z,12.60
2022-10-02T11:25:12.878Z,12.60
2022-10-02T11:27:40.116Z,12.70
2022-10-02T11:30:13.051Z,12.70
2022-10-02T11:32:39.834Z,12.80
2022-10-02T11:35:19.424Z,12.80
2022-10-02T11:38:01.742Z,12.80
2022-10-02T11:40:49.219Z,12.80
2022-10-02T11:43:25.037Z,12.90
2022-10-02T11:46:00.365Z,12.80
2022-10-02T11:48:46.781Z,12.90
2022-10-02T11:51:28.980Z,12.90
2022-10-02T11:54:15.896Z,13.00
2022-10-02T11:56:49.369Z,13.10
2022-10-02T11:59:20.048Z,13.10
2022-10-02T12:01:53.226Z,13.20
2022-10-02T12:04:40.837Z,13.30
2022-10-02T12:07:24.829Z,13.30
2022-10-02T12:09:54.792Z,13.30
2022-10-02T12:12:25.758Z,13.40
2022-10-02T12:15:03.796Z,13.40
2022-10-02T12:17:55.225Z,13.40
2022-10-02T12:20:40.523Z,13.50
2022-10-02T12:23:35.144Z,13.40
2022-10-02T12:26:24.028Z,13.50
2022-10-02T12:29:04.068Z,13.50
2022-10-02T12:31:40.978Z,13.50
2022-10-02T12:34:26.085Z,13.60
2022-10-02T12:37:02.959Z,13.60
2022-10-02T12:39:39.864Z,13.60
2022-10-02T12:42:17.347Z,13.60
2022-10-02T12:45:05.018Z,13.60
2022-10-02T12:47:40.374Z,13.60
2022-10-02T12:50:16.622Z,13.60
2022-10-02T12:52:59.473Z,13.60
2022-10-02T12:55:45.236Z,13.60
2022-10-02T12:58:31.497Z,13.60
2022-10-02T13:00:58.411Z,13.50
2022-10-02T13:03:47.128Z,13.50
2022-10-02T13:06:29.849Z,13.50
2022-10-02T13:09:00.894Z,13.50
2022-10-02T13:11:40.475Z,13.50
2022-10-02T13:14:26.534Z,13.50
2022-10-02T13:17:12.248Z,13.40
2022-10-02T13:19:43.727Z,13.40
2022-10-02T13:22:31.578Z,13.40
2022-10-02T13:24:58.487Z,13.30
2022-10-02T13:27:34.248Z,13.30
2022-10-02T13:30:16.353Z,13.30
2022-10-02T13:32:49.257Z,13.20
2022-10-02T13:35:39.421Z,13.30
2022-10-02T13:38:12.531Z,13.20
2022-10-02T13:40:39.471Z,13.20
2022-10-02T13:43:06.498Z,13.20
2022-10-02T13:45:33.556Z,13.20
2022-10-02T13:48:18.311Z,13.20
2022-10-02T13:50:57.331Z,13.20
2022-10-02T13:53:30.093Z,13.20
2022-10-02T13:56:04.137Z,13.20
2022-10-02T13:58:30.960Z,13.20
2022-10-02T14:01:10.312Z,13.20
2022-10-02T14:03:56.114Z,13.20
2022-10-02T14:06:22.995Z,13.20
2022-10-02T14:09:05.244Z,13.10
2022-10-02T14:11:50.921Z,13.10
2022-10-02T14:14:38.891Z,13.10
2022-10-02T14:17:12.392Z,13.10
2022-10-02T14:19:42.170Z,13.10
2022-10-02T14:22:16.062Z,13.10
2022-10-02T14:25:01.276Z,13.10
2022-10-02T14:27:46.553Z,13.10
2022-10-02T14:30:13.425Z,13.10
2022-10-02T14:32:40.194Z,13.10
2022-10-02T14:35:19.181Z,13.00
2022-10-02T14:37:52.073Z,13.00
2022-10-02T14:40:19.500Z,13.00
2022-10-02T14:43:05.012Z,13.00
2022-10-02T14:45:40.771Z,13.00
2022-10-02T14:48:26.722Z,13.00
2022-10-02T14:50:59.767Z,13.00
2022-10-02T14:53:26.617Z,13.00
2022-10-02T14:55:59.702Z,13.00
2022-10-02T14:58:35.545Z,13.00
2022-10-02T15:01:02.401Z,13.00
2022-10-02T15:03:47.227Z,12.90
2022-10-02T15:06:22.947Z,13.00
2022-10-02T15:08:56.314Z,12.90
2022-10-02T15:11:43.453Z,13.00
2022-10-02T15:14:16.849Z,12.90
2022-10-02T15:17:06.421Z,13.00
2022-10-02T15:19:49.129Z,13.00
2022-10-02T15:22:27.578Z,12.90
2022-10-02T15:24:58.630Z,12.90
2022-10-02T15:27:26.745Z,12.90
2022-10-02T15:30:12.319Z,12.90
2022-10-02T15:32:59.365Z,12.90
2022-10-02T15:35:33.471Z,12.90
2022-10-02T15:38:18.721Z,12.90
2022-10-02T15:41:04.436Z,12.80
2022-10-02T15:43:49.839Z,12.80
2022-10-02T15:46:19.455Z,12.70
2022-10-02T15:48:51.554Z,12.70
2022-10-02T15:51:31.841Z,12.70
2022-10-02T15:54:01.703Z,12.70
2022-10-02T15:56:47.314Z,12.70
2022-10-02T15:59:14.754Z,12.70
2022-10-02T16:01:44.500Z,12.70
2022-10-02T16:04:30.575Z,12.70
2022-10-02T16:06:57.430Z,12.70
2022-10-02T16:09:43.069Z,12.60
2022-10-02T16:12:09.917Z,12.70
2022-10-02T16:14:42.381Z,12.70
2022-10-02T16:17:41.650Z,12.70
2022-10-02T16:20:08.511Z,12.70
2022-10-02T16:22:44.391Z,12.70
2022-10-02T16:25:18.029Z,12.70
2022-10-02T16:28:06.190Z,12.70
2022-10-02T16:30:39.581Z,12.70
2022-10-02T16:33:15.468Z,12.70
2022-10-02T16:35:51.342Z,12.70
2022-10-02T16:38:37.724Z,12.60
2022-10-02T16:41:29.204Z,12.60
2022-10-02T16:43:58.953Z,12.50
2022-10-02T16:46:28.629Z,12.50
2022-10-02T16:49:04.065Z,12.50
2022-10-02T16:51:50.742Z,12.50
2022-10-02T16:54:21.555Z,12.50
2022-10-02T16:56:54.422Z,12.40
2022-10-02T16:59:39.718Z,12.40
2022-10-02T17:02:21.483Z,12.40
2022-10-02T17:04:54.612Z,12.40
2022-10-02T17:07:40.215Z,12.40
2022-10-02T17:10:18.202Z,12.40
2022-10-02T17:13:05.976Z,12.40
2022-10-02T17:15:38.822Z,12.40
2022-10-02T17:18:17.433Z,12.30
2022-10-02T17:20:47.380Z,12.40
2022-10-02T17:23:29.560Z,12.40
2022-10-02T17:25:59.621Z,12.30
2022-10-02T17:28:31.325Z,12.20
2022-10-02T17:31:01.450Z,12.20
2022-10-02T17:33:32.466Z,12.20
2022-10-02T17:36:12.212Z,12.20
2022-10-02T17:38:48.120Z,12.20
2022-10-02T17:41:20.060Z,12.20
2022-10-02T17:44:01.694Z,12.10
2022-10-02T17:46:47.650Z,12.10
2022-10-02T17:49:21.630Z,12.00
2022-10-02T17:52:20.588Z,12.00
2022-10-02T17:55:18.443Z,12.00
2022-10-02T17:57:48.298Z,12.00
2022-10-02T18:00:24.853Z,12.00
2022-10-02T18:02:51.618Z,11.90
2022-10-02T18:05:37.550Z,11.90
2022-10-02T18:08:12.587Z,11.80
2022-10-02T18:10:48.747Z,11.80
2022-10-02T18:13:27.956Z,11.80
2022-10-02T18:16:13.689Z,11.80
2022-10-02T18:18:41.978Z,11.80
2022-10-02T18:21:27.613Z,11.70
2022-10-02T18:23:54.552Z,11.70
2022-10-02T18:26:27.516Z,11.70
2022-10-02T18:28:54.342Z,11.60
2022-10-02T18:31:50.906Z,11.50
2022-10-02T18:34:27.325Z,11.50
2022-10-02T18:37:03.012Z,11.60
2022-10-02T18:39:39.621Z,11.50
2022-10-02T18:42:21.067Z,11.50
2022-10-02T18:44:51.080Z,11.40
2022-10-02T18:47:20.891Z,11.40
2022-10-02T18:49:52.350Z,11.40
2022-10-02T18:52:22.210Z,11.40
2022-10-02T18:54:58.524Z,11.30
2022-10-02T18:57:33.561Z,11.30
2022-10-02T19:00:15.832Z,11.20
2022-10-02T19:02:51.129Z,11.20
2022-10-02T19:05:22.691Z,11.10
2022-10-02T19:07:49.536Z,11.20
2022-10-02T19:10:43.884Z,11.20
2022-10-02T19:13:17.629Z,11.20
2022-10-02T19:15:46.594Z,11.10
2022-10-02T19:18:27.037Z,11.10
2022-10-02T19:20:56.811Z,11.10
2022-10-02T19:23:29.228Z,11.10
2022-10-02T19:25:57.635Z,11.10
2022-10-02T19:28:29.368Z,11.10
2022-10-02T19:30:58.806Z,11.00
2022-10-02T19:33:50.021Z,11.00
2022-10-02T19:36:18.788Z,11.00
2022-10-02T19:38:50.462Z,11.00
2022-10-02T19:41:18.441Z,11.00
2022-10-02T19:43:45.510Z,11.00
2022-10-02T19:46:14.350Z,11.00
2022-10-02T19:48:41.405Z,10.90
2022-10-02T19:51:17.090Z,10.90
2022-10-02T19:53:48.497Z,10.90
2022-10-02T19:56:24.665Z,10.90
2022-10-02T19:58:55.636Z,10.90
2022-10-02T20:01:27.089Z,10.80
2022-10-02T20:03:56.603Z,10.80
2022-10-02T20:06:24.558Z,10.80
2022-10-02T20:08:58.192Z,10.80
2022-10-02T20:11:39.162Z,10.80
2022-10-02T20:14:11.262Z,10.90
2022-10-02T20:16:57.361Z,10.80
2022-10-02T20:19:25.710Z,10.80
2022-10-02T20:21:54.680Z,10.80
2022-10-02T20:24:40.016Z,10.80
2022-10-02T20:27:20.644Z,10.80
2022-10-02T20:29:49.643Z,10.80
2022-10-02T20:32:34.917Z,10.70
2022-10-02T20:35:34.979Z,10.70
2022-10-02T20:38:04.876Z,10.70
2022-10-02T20:40:33.123Z,10.70
2022-10-02T20:43:15.561Z,10.70
2022-10-02T20:45:47.024Z,10.60
2022-10-02T20:49:06.331Z,10.70
2022-10-02T20:51:49.290Z,10.60
2022-10-02T20:54:36.613Z,10.60
2022-10-02T20:57:03.467Z,10.60
2022-10-02T20:59:32.868Z,10.60
2022-10-02T21:01:59.910Z,10.60
2022-10-02T21:04:26.813Z,10.60
2022-10-02T21:06:56.096Z,10.60
2022-10-02T21:09:23.104Z,10.60
2022-10-02T21:12:08.486Z,10.60
2022-10-02T21:14:58.759Z,10.60
2022-10-02T21:17:48.854Z,10.60
2022-10-02T21:20:53.586Z,10.60
2022-10-02T21:23:32.238Z,10.60
2022-10-02T21:25:59.191Z,10.60
2022-10-02T21:28:26.603Z,10.50
2022-10-02T21:31:05.885Z,10.50
2022-10-02T21:33:40.800Z,10.50
2022-10-02T21:36:09.317Z,10.60
2022-10-02T21:39:06.880Z,10.50
2022-10-02T21:41:40.337Z,10.50
2022-10-02T21:44:19.890Z,10.50
2022-10-02T21:46:49.971Z,10.40
2022-10-02T21:49:23.018Z,10.50
2022-10-02T21:52:08.807Z,10.50
2022-10-02T21:54:38.756Z,10.40
2022-10-02T21:57:11.591Z,10.40
2022-10-02T21:59:44.911Z,10.40
2022-10-02T22:02:15.298Z,10.40
2022-10-02T22:04:42.443Z,10.30
2022-10-02T22:07:29.837Z,10.30
2022-10-02T22:10:05.152Z,10.20
2022-10-02T22:12:41.146Z,10.20
2022-10-02T22:15:26.257Z,10.20
2022-10-02T22:17:59.091Z,10.10
2022-10-02T22:20:44.426Z,10.10
2022-10-02T22:23:37.962Z,10.00
2022-10-02T22:26:15.841Z,10.00
2022-10-02T22:28:47.870Z,10.00
2022-10-02T22:31:17.758Z,10.00
2022-10-02T22:33:55.191Z,10.00
2022-10-02T22:36:32.248Z,10.00
2022-10-02T22:39:18.159Z,9.90
2022-10-02T22:42:11.427Z,9.90
2022-10-02T22:44:44.415Z,9.90
2022-10-02T22:47:12.187Z,10.00
2022-10-02T22:49:43.492Z,10.00
2022-10-02T22:52:13.290Z,10.00
2022-10-02T22:54:44.771Z,10.00
2022-10-02T22:57:18.160Z,10.00
2022-10-02T23:00:00.559Z,10.00
2022-10-02T23:02:31.636Z,9.90
2022-10-02T23:05:02.337Z,9.90
2022-10-02T23:07:34.565Z,9.90
2022-10-02T23:10:26.020Z,9.80
2022-10-02T23:13:11.759Z,9.80
2022-10-02T23:15:47.631Z,9.80
2022-10-02T23:18:26.630Z,9.70
2022-10-02T23:21:06.890Z,9.70
2022-10-02T23:23:37.061Z,9.70
2022-10-02T23:26:11.174Z,9.60
2022-10-02T23:28:44.700Z,9.60
2022-10-02T23:31:22.100Z,9.50
2022-10-02T23:34:15.446Z,9.50
2022-10-02T23:36:52.049Z,9.50
2022-10-02T23:39:26.721Z,9.50
2022-10-02T23:41:55.732Z,9.50
2022-10-02T23:44:26.913Z,9.50
2022-10-02T23:46:56.776Z,9.40
2022-10-02T23:49:30.611Z,9.40
2022-10-02T23:52:12.074Z,9.30
2022-10-02T23:55:14.620Z,9.20
2022-10-02T23:57:53.797Z,9.20
